Syzran, Russia
Current Conditions -  °F | °C
As of 1:00 PM on Friday 31 Oct 2014 (Local Time) from UWWW Reporting Station
Overcast Overcast  
Wind Chill: 40°   Ceiling: 10000
Heat Index: 45°   Visibility: 6mi
Dew Point: 36°   Wind: 9mph
Humidity: 71%   Direction: 210°SSW
Pressure: 30.09"   Gusts: NA
Location:  53.17°N, 48.47°E
Report Text: UWWW 310900Z 21004MPS 9999 SCT033 OVC100 07/02 Q1019 2329005015//99// NOSIG RMK QFE753/1004 6811111
Loading
Personal Weather Stations






























Interactive Weather Map
Tropical Storm Tracking
New forecast layout! Learn more

10-Day Weather Forecast

Advertisements
Track Severe Weather on mobile